Corpus Christi, TX (78406)

03:31 CDT le 28 septembre 2016 (GMT -0500)
Corpus Christi International | | Change Station

Alt. 43 ft 27.77 °N, 97.51 °W | Updated 40 minutes ago

Partly Cloudy
Partiellement nuageux
72 ° F
Paraît 72 ° F
N
7
Vent Variable Vent de Nord

Aujourd'hui
Haut(e) -- | Bas -- ° F
--% Risque de précip.
Hier
Haut(e) -- | Bas -- ° F
Precip. -- pouce
Pression 30.00 pouce
Visibilité 10.0 Miles terrestres
Nuages Peu 2000 ft
Peu 25000 ft
Point de rosée 68 ° F
Humidité 87%
Précipitations 0.00 pouce
Profondeur de la couche neigeuse Non disponible.
7:21 AM 7:18 PM
Lune descendante, 7% visible
METAR KCRP 280751Z 36006KT 10SM FEW020 FEW250 22/20 A3000 RMK AO2 SLP157 T02220200
Pression 30.00 pouce
Visibilité 10.0 Miles terrestres
Nuages Peu 2000 ft
Peu 25000 ft
Point de rosée 68 ° F
Humidité 87%
Précipitations 0.00 pouce
Profondeur de la couche neigeuse Non disponible.
7:21 AM 7:18 PM
Lune descendante, 7% visible
METAR KCRP 280751Z 36006KT 10SM FEW020 FEW250 22/20 A3000 RMK AO2 SLP157 T02220200

10-Day Weather Forecast

Almanac

Astronomie

Sep. 28, 2016 Lever Coucher
Temps réel
Crépuscule civil
Crépuscule nautique
Crépuscule astronomique
Lune
Durée de lumière visible
Longueur du jour
Tomorrow will be .
, % of the Moon is Illuminated

Extrêmes aujourd'hui

State Highs State Lows

Community

WunderPhotos

Upload Photos

1,942,216 Photos téléchargées !

WunderBlog® & News

Nearby

Qualité de l'air

  Qualité de l'air Indice de la qualité de l'air Polluant
Not available.

Épaisseur de neige

Station Depth Altitude

Activité sismique

Ville Distance Mag. Time & Date
Minimum magnitude displayed is 2.5.

Températures des eaux côtières

Lieu Température

Stations

Stations météo à proximité

Emplacement de la station Température Refroidissement éolien Point de rosée Humidité Vent Precip. Alt. Mise à jour Type
                   

Watches & Warnings

There are currently no watches in effect.